sensor_id;sensor_type;location;lat;lon;timestamp;temperature;humidity
16871;DHT22;8552;48.120;-1.456;2023-07-28T00:00:07;18.70;99.90
16871;DHT22;8552;48.120;-1.456;2023-07-28T00:02:33;18.70;99.90
16871;DHT22;8552;48.120;-1.456;2023-07-28T00:04:59;18.70;99.90
16871;DHT22;8552;48.120;-1.456;2023-07-28T00:07:25;18.70;99.90
16871;DHT22;8552;48.120;-1.456;2023-07-28T00:09:50;18.70;99.90
16871;DHT22;8552;48.120;-1.456;2023-07-28T00:12:16;18.70;99.90
16871;DHT22;8552;48.120;-1.456;2023-07-28T00:14:41;18.70;99.90
16871;DHT22;8552;48.120;-1.456;2023-07-28T00:17:07;18.70;99.90
16871;DHT22;8552;48.120;-1.456;2023-07-28T00:19:33;18.70;99.90
16871;DHT22;8552;48.120;-1.456;2023-07-28T00:21:58;18.80;99.90
16871;DHT22;8552;48.120;-1.456;2023-07-28T00:24:24;18.70;99.90
16871;DHT22;8552;48.120;-1.456;2023-07-28T00:26:50;18.70;99.90
16871;DHT22;8552;48.120;-1.456;2023-07-28T00:29:15;18.70;99.90
16871;DHT22;8552;48.120;-1.456;2023-07-28T00:31:41;18.70;99.90
16871;DHT22;8552;48.120;-1.456;2023-07-28T00:34:07;18.70;99.90
16871;DHT22;8552;48.120;-1.456;2023-07-28T00:36:32;18.70;99.90
16871;DHT22;8552;48.120;-1.456;2023-07-28T00:38:58;18.80;99.90
16871;DHT22;8552;48.120;-1.456;2023-07-28T00:41:24;18.70;99.90
16871;DHT22;8552;48.120;-1.456;2023-07-28T00:43:50;18.70;99.90
16871;DHT22;8552;48.120;-1.456;2023-07-28T00:46:16;18.70;99.90
16871;DHT22;8552;48.120;-1.456;2023-07-28T00:48:42;18.80;99.90
16871;DHT22;8552;48.120;-1.456;2023-07-28T00:51:08;18.70;99.90
16871;DHT22;8552;48.120;-1.456;2023-07-28T00:53:34;18.70;99.90
16871;DHT22;8552;48.120;-1.456;2023-07-28T00:56:03;18.80;99.90
16871;DHT22;8552;48.120;-1.456;2023-07-28T00:58:30;18.70;99.90
16871;DHT22;8552;48.120;-1.456;2023-07-28T01:00:56;18.80;99.90
16871;DHT22;8552;48.120;-1.456;2023-07-28T01:03:22;18.70;99.90
16871;DHT22;8552;48.120;-1.456;2023-07-28T01:08:57;18.80;99.90
16871;DHT22;8552;48.120;-1.456;2023-07-28T01:11:24;18.70;99.90
16871;DHT22;8552;48.120;-1.456;2023-07-28T01:13:50;18.80;99.90
16871;DHT22;8552;48.120;-1.456;2023-07-28T01:16:16;18.80;99.90
16871;DHT22;8552;48.120;-1.456;2023-07-28T01:18:41;18.80;99.90
16871;DHT22;8552;48.120;-1.456;2023-07-28T01:21:12;18.80;99.90
16871;DHT22;8552;48.120;-1.456;2023-07-28T01:24:41;18.80;99.90
16871;DHT22;8552;48.120;-1.456;2023-07-28T01:26:48;18.70;99.90
16871;DHT22;8552;48.120;-1.456;2023-07-28T01:29:16;18.70;99.90
16871;DHT22;8552;48.120;-1.456;2023-07-28T01:31:41;18.80;99.90
16871;DHT22;8552;48.120;-1.456;2023-07-28T01:34:07;18.80;99.90
16871;DHT22;8552;48.120;-1.456;2023-07-28T01:36:33;18.70;99.90
16871;DHT22;8552;48.120;-1.456;2023-07-28T01:38:59;18.80;99.90
16871;DHT22;8552;48.120;-1.456;2023-07-28T01:41:24;18.80;99.90
16871;DHT22;8552;48.120;-1.456;2023-07-28T01:43:50;18.70;99.90
16871;DHT22;8552;48.120;-1.456;2023-07-28T01:46:16;18.70;99.90
16871;DHT22;8552;48.120;-1.456;2023-07-28T01:48:41;18.80;99.90
16871;DHT22;8552;48.120;-1.456;2023-07-28T01:51:07;18.80;99.90
16871;DHT22;8552;48.120;-1.456;2023-07-28T01:53:33;18.80;99.90
16871;DHT22;8552;48.120;-1.456;2023-07-28T01:55:58;18.80;99.90
16871;DHT22;8552;48.120;-1.456;2023-07-28T01:58:26;18.80;99.90
16871;DHT22;8552;48.120;-1.456;2023-07-28T02:00:51;18.80;99.90
16871;DHT22;8552;48.120;-1.456;2023-07-28T02:03:17;18.80;99.90
16871;DHT22;8552;48.120;-1.456;2023-07-28T02:05:43;18.80;99.90
16871;DHT22;8552;48.120;-1.456;2023-07-28T02:08:10;18.80;99.90
16871;DHT22;8552;48.120;-1.456;2023-07-28T02:10:35;18.80;99.90
16871;DHT22;8552;48.120;-1.456;2023-07-28T02:13:01;18.80;99.90
16871;DHT22;8552;48.120;-1.456;2023-07-28T02:15:26;18.80;99.90
16871;DHT22;8552;48.120;-1.456;2023-07-28T02:17:52;18.80;99.90
16871;DHT22;8552;48.120;-1.456;2023-07-28T02:20:18;18.80;99.90
16871;DHT22;8552;48.120;-1.456;2023-07-28T02:22:43;18.80;99.90
16871;DHT22;8552;48.120;-1.456;2023-07-28T02:25:10;18.80;99.90
16871;DHT22;8552;48.120;-1.456;2023-07-28T02:27:39;18.80;99.90
16871;DHT22;8552;48.120;-1.456;2023-07-28T02:30:06;18.80;99.90
16871;DHT22;8552;48.120;-1.456;2023-07-28T02:32:31;18.80;99.90
16871;DHT22;8552;48.120;-1.456;2023-07-28T02:34:57;18.80;99.90
16871;DHT22;8552;48.120;-1.456;2023-07-28T02:37:24;18.80;99.90
16871;DHT22;8552;48.120;-1.456;2023-07-28T02:39:50;18.80;99.90
16871;DHT22;8552;48.120;-1.456;2023-07-28T02:42:16;18.80;99.90
16871;DHT22;8552;48.120;-1.456;2023-07-28T02:44:42;18.70;99.90
16871;DHT22;8552;48.120;-1.456;2023-07-28T02:47:07;18.70;99.90
16871;DHT22;8552;48.120;-1.456;2023-07-28T02:49:33;18.80;99.90
16871;DHT22;8552;48.120;-1.456;2023-07-28T02:51:59;18.80;99.90
16871;DHT22;8552;48.120;-1.456;2023-07-28T02:54:25;18.80;99.90
16871;DHT22;8552;48.120;-1.456;2023-07-28T02:56:51;18.80;99.90
16871;DHT22;8552;48.120;-1.456;2023-07-28T02:59:17;18.70;99.90
16871;DHT22;8552;48.120;-1.456;2023-07-28T03:01:42;18.80;99.90
16871;DHT22;8552;48.120;-1.456;2023-07-28T03:04:08;18.70;99.90
16871;DHT22;8552;48.120;-1.456;2023-07-28T03:06:34;18.80;99.90
16871;DHT22;8552;48.120;-1.456;2023-07-28T03:08:59;18.80;99.90
16871;DHT22;8552;48.120;-1.456;2023-07-28T03:11:25;18.80;99.90
16871;DHT22;8552;48.120;-1.456;2023-07-28T03:13:51;18.70;99.90
16871;DHT22;8552;48.120;-1.456;2023-07-28T03:16:16;18.80;99.90
16871;DHT22;8552;48.120;-1.456;2023-07-28T03:18:42;18.80;99.90
16871;DHT22;8552;48.120;-1.456;2023-07-28T03:21:09;18.80;99.90
16871;DHT22;8552;48.120;-1.456;2023-07-28T03:23:35;18.80;99.90
16871;DHT22;8552;48.120;-1.456;2023-07-28T03:26:00;18.80;99.90
16871;DHT22;8552;48.120;-1.456;2023-07-28T03:28:26;18.70;99.90
16871;DHT22;8552;48.120;-1.456;2023-07-28T03:30:52;18.70;99.90
16871;DHT22;8552;48.120;-1.456;2023-07-28T03:33:17;18.70;99.90
16871;DHT22;8552;48.120;-1.456;2023-07-28T03:35:43;18.80;99.90
16871;DHT22;8552;48.120;-1.456;2023-07-28T03:38:09;18.80;99.90
16871;DHT22;8552;48.120;-1.456;2023-07-28T03:40:34;18.70;99.90
16871;DHT22;8552;48.120;-1.456;2023-07-28T03:43:00;18.70;99.90
16871;DHT22;8552;48.120;-1.456;2023-07-28T03:45:26;18.80;99.90
16871;DHT22;8552;48.120;-1.456;2023-07-28T03:47:51;18.70;99.90
16871;DHT22;8552;48.120;-1.456;2023-07-28T03:50:17;18.70;99.90
16871;DHT22;8552;48.120;-1.456;2023-07-28T03:52:43;18.80;99.90
16871;DHT22;8552;48.120;-1.456;2023-07-28T03:55:08;18.80;99.90
16871;DHT22;8552;48.120;-1.456;2023-07-28T03:57:34;18.70;99.90
16871;DHT22;8552;48.120;-1.456;2023-07-28T04:00:00;18.80;99.90
16871;DHT22;8552;48.120;-1.456;2023-07-28T04:02:26;18.70;99.90
16871;DHT22;8552;48.120;-1.456;2023-07-28T04:04:55;18.80;99.90
16871;DHT22;8552;48.120;-1.456;2023-07-28T04:07:21;18.70;99.90
16871;DHT22;8552;48.120;-1.456;2023-07-28T04:09:46;18.80;99.90
16871;DHT22;8552;48.120;-1.456;2023-07-28T04:12:12;18.70;99.90
16871;DHT22;8552;48.120;-1.456;2023-07-28T04:14:38;18.70;99.90
16871;DHT22;8552;48.120;-1.456;2023-07-28T04:17:04;18.70;99.90
16871;DHT22;8552;48.120;-1.456;2023-07-28T04:19:29;18.70;99.90
16871;DHT22;8552;48.120;-1.456;2023-07-28T04:21:58;18.80;99.90
16871;DHT22;8552;48.120;-1.456;2023-07-28T04:24:24;18.70;99.90
16871;DHT22;8552;48.120;-1.456;2023-07-28T04:26:50;18.70;99.90
16871;DHT22;8552;48.120;-1.456;2023-07-28T04:29:16;18.70;99.90
16871;DHT22;8552;48.120;-1.456;2023-07-28T04:31:42;18.70;99.90
16871;DHT22;8552;48.120;-1.456;2023-07-28T04:34:08;18.70;99.90
16871;DHT22;8552;48.120;-1.456;2023-07-28T04:36:34;18.70;99.90
16871;DHT22;8552;48.120;-1.456;2023-07-28T04:38:59;18.70;99.90
16871;DHT22;8552;48.120;-1.456;2023-07-28T04:41:25;18.70;99.90
16871;DHT22;8552;48.120;-1.456;2023-07-28T04:43:51;18.70;99.90
16871;DHT22;8552;48.120;-1.456;2023-07-28T04:46:17;18.70;99.90
16871;DHT22;8552;48.120;-1.456;2023-07-28T04:48:43;18.70;99.90
16871;DHT22;8552;48.120;-1.456;2023-07-28T04:51:09;18.70;99.90
16871;DHT22;8552;48.120;-1.456;2023-07-28T04:53:34;18.70;99.90
16871;DHT22;8552;48.120;-1.456;2023-07-28T04:56:00;18.70;99.90
16871;DHT22;8552;48.120;-1.456;2023-07-28T04:58:26;18.70;99.90
16871;DHT22;8552;48.120;-1.456;2023-07-28T05:00:51;18.70;99.90
16871;DHT22;8552;48.120;-1.456;2023-07-28T05:03:17;18.70;99.90
16871;DHT22;8552;48.120;-1.456;2023-07-28T05:05:44;18.70;99.90
16871;DHT22;8552;48.120;-1.456;2023-07-28T05:08:10;18.70;99.90
16871;DHT22;8552;48.120;-1.456;2023-07-28T05:10:36;18.70;99.90
16871;DHT22;8552;48.120;-1.456;2023-07-28T05:13:02;18.70;99.90
16871;DHT22;8552;48.120;-1.456;2023-07-28T05:15:29;18.70;99.90
16871;DHT22;8552;48.120;-1.456;2023-07-28T05:17:55;18.70;99.90
16871;DHT22;8552;48.120;-1.456;2023-07-28T05:20:21;18.70;99.90
16871;DHT22;8552;48.120;-1.456;2023-07-28T05:22:47;18.70;99.90
16871;DHT22;8552;48.120;-1.456;2023-07-28T05:25:12;18.70;99.90
16871;DHT22;8552;48.120;-1.456;2023-07-28T05:27:38;18.70;99.90
16871;DHT22;8552;48.120;-1.456;2023-07-28T05:30:05;18.70;99.90
16871;DHT22;8552;48.120;-1.456;2023-07-28T05:32:31;18.70;99.90
16871;DHT22;8552;48.120;-1.456;2023-07-28T05:34:57;18.70;99.90
16871;DHT22;8552;48.120;-1.456;2023-07-28T05:37:22;18.70;99.90
16871;DHT22;8552;48.120;-1.456;2023-07-28T05:39:48;18.70;99.90
16871;DHT22;8552;48.120;-1.456;2023-07-28T05:42:14;18.70;99.90
16871;DHT22;8552;48.120;-1.456;2023-07-28T05:44:39;18.70;99.90
16871;DHT22;8552;48.120;-1.456;2023-07-28T05:47:05;18.80;99.90
16871;DHT22;8552;48.120;-1.456;2023-07-28T05:49:31;18.70;99.90
16871;DHT22;8552;48.120;-1.456;2023-07-28T05:51:57;18.80;99.90
16871;DHT22;8552;48.120;-1.456;2023-07-28T05:54:23;18.90;99.90
16871;DHT22;8552;48.120;-1.456;2023-07-28T05:56:48;18.80;99.90
16871;DHT22;8552;48.120;-1.456;2023-07-28T05:59:15;18.90;99.90
16871;DHT22;8552;48.120;-1.456;2023-07-28T06:01:41;18.90;99.90
16871;DHT22;8552;48.120;-1.456;2023-07-28T06:04:06;19.00;99.90
16871;DHT22;8552;48.120;-1.456;2023-07-28T06:06:35;19.10;99.90
16871;DHT22;8552;48.120;-1.456;2023-07-28T06:09:05;19.10;99.90
16871;DHT22;8552;48.120;-1.456;2023-07-28T06:11:33;19.20;99.90
16871;DHT22;8552;48.120;-1.456;2023-07-28T06:13:59;19.20;99.90
16871;DHT22;8552;48.120;-1.456;2023-07-28T06:16:24;19.20;99.90
16871;DHT22;8552;48.120;-1.456;2023-07-28T06:18:50;19.30;99.90
16871;DHT22;8552;48.120;-1.456;2023-07-28T06:21:15;19.40;99.90
16871;DHT22;8552;48.120;-1.456;2023-07-28T06:23:41;19.40;99.90
16871;DHT22;8552;48.120;-1.456;2023-07-28T06:26:07;19.50;99.90
16871;DHT22;8552;48.120;-1.456;2023-07-28T06:28:32;19.40;99.90
16871;DHT22;8552;48.120;-1.456;2023-07-28T06:30:58;19.40;99.90
16871;DHT22;8552;48.120;-1.456;2023-07-28T06:33:25;19.40;99.90
16871;DHT22;8552;48.120;-1.456;2023-07-28T06:35:51;19.40;99.90
16871;DHT22;8552;48.120;-1.456;2023-07-28T06:38:17;19.50;99.90
16871;DHT22;8552;48.120;-1.456;2023-07-28T06:40:43;19.50;99.90
16871;DHT22;8552;48.120;-1.456;2023-07-28T06:43:09;19.50;99.90
16871;DHT22;8552;48.120;-1.456;2023-07-28T06:45:35;19.50;99.90
16871;DHT22;8552;48.120;-1.456;2023-07-28T06:48:00;19.50;99.90
16871;DHT22;8552;48.120;-1.456;2023-07-28T06:50:26;19.50;99.90
16871;DHT22;8552;48.120;-1.456;2023-07-28T06:52:52;19.40;99.90
16871;DHT22;8552;48.120;-1.456;2023-07-28T06:55:18;19.50;99.90
16871;DHT22;8552;48.120;-1.456;2023-07-28T06:57:44;19.50;99.90
16871;DHT22;8552;48.120;-1.456;2023-07-28T07:00:10;19.50;99.90
16871;DHT22;8552;48.120;-1.456;2023-07-28T07:02:36;19.60;99.90
16871;DHT22;8552;48.120;-1.456;2023-07-28T07:05:03;19.60;99.90
16871;DHT22;8552;48.120;-1.456;2023-07-28T07:07:29;19.60;99.90
16871;DHT22;8552;48.120;-1.456;2023-07-28T07:09:55;19.70;99.90
16871;DHT22;8552;48.120;-1.456;2023-07-28T07:12:20;19.70;99.90
16871;DHT22;8552;48.120;-1.456;2023-07-28T07:14:47;19.80;99.90
16871;DHT22;8552;48.120;-1.456;2023-07-28T07:17:13;19.80;99.90
16871;DHT22;8552;48.120;-1.456;2023-07-28T07:19:38;19.90;99.90
16871;DHT22;8552;48.120;-1.456;2023-07-28T07:22:05;20.00;99.90
16871;DHT22;8552;48.120;-1.456;2023-07-28T07:24:31;19.90;99.90
16871;DHT22;8552;48.120;-1.456;2023-07-28T07:26:57;20.10;99.90
16871;DHT22;8552;48.120;-1.456;2023-07-28T07:29:22;20.10;99.90
16871;DHT22;8552;48.120;-1.456;2023-07-28T07:31:48;20.20;99.90
16871;DHT22;8552;48.120;-1.456;2023-07-28T07:34:14;20.20;99.90
16871;DHT22;8552;48.120;-1.456;2023-07-28T07:36:40;20.30;99.90
16871;DHT22;8552;48.120;-1.456;2023-07-28T07:39:05;20.20;99.90
16871;DHT22;8552;48.120;-1.456;2023-07-28T07:41:31;20.30;99.90
16871;DHT22;8552;48.120;-1.456;2023-07-28T07:43:58;20.30;99.90
16871;DHT22;8552;48.120;-1.456;2023-07-28T07:46:26;20.30;99.90
16871;DHT22;8552;48.120;-1.456;2023-07-28T07:48:53;20.30;99.90
16871;DHT22;8552;48.120;-1.456;2023-07-28T07:51:21;20.30;99.90
16871;DHT22;8552;48.120;-1.456;2023-07-28T07:53:48;20.30;99.90
16871;DHT22;8552;48.120;-1.456;2023-07-28T07:56:13;20.30;99.90
16871;DHT22;8552;48.120;-1.456;2023-07-28T07:58:44;20.40;99.90
16871;DHT22;8552;48.120;-1.456;2023-07-28T08:01:16;20.40;99.90
16871;DHT22;8552;48.120;-1.456;2023-07-28T08:03:49;20.40;99.90
16871;DHT22;8552;48.120;-1.456;2023-07-28T08:06:18;20.40;99.90
16871;DHT22;8552;48.120;-1.456;2023-07-28T08:08:46;20.60;99.90
16871;DHT22;8552;48.120;-1.456;2023-07-28T08:11:18;20.90;99.90
16871;DHT22;8552;48.120;-1.456;2023-07-28T08:13:46;21.10;99.90
16871;DHT22;8552;48.120;-1.456;2023-07-28T08:16:16;21.20;99.90
16871;DHT22;8552;48.120;-1.456;2023-07-28T08:18:43;21.40;99.90
16871;DHT22;8552;48.120;-1.456;2023-07-28T08:21:09;21.60;99.90
16871;DHT22;8552;48.120;-1.456;2023-07-28T08:23:35;21.60;99.90
16871;DHT22;8552;48.120;-1.456;2023-07-28T08:26:01;21.50;99.90
16871;DHT22;8552;48.120;-1.456;2023-07-28T08:28:26;21.50;99.90
16871;DHT22;8552;48.120;-1.456;2023-07-28T08:30:55;21.60;99.90
16871;DHT22;8552;48.120;-1.456;2023-07-28T08:33:22;21.60;99.90
16871;DHT22;8552;48.120;-1.456;2023-07-28T08:35:48;21.60;99.90
16871;DHT22;8552;48.120;-1.456;2023-07-28T08:38:13;21.70;99.90
16871;DHT22;8552;48.120;-1.456;2023-07-28T08:40:40;21.70;99.90
16871;DHT22;8552;48.120;-1.456;2023-07-28T08:43:05;21.70;99.90
16871;DHT22;8552;48.120;-1.456;2023-07-28T08:45:31;21.70;99.90
16871;DHT22;8552;48.120;-1.456;2023-07-28T08:47:57;21.70;99.90
16871;DHT22;8552;48.120;-1.456;2023-07-28T08:50:23;21.90;99.90
16871;DHT22;8552;48.120;-1.456;2023-07-28T08:52:48;21.90;99.90
16871;DHT22;8552;48.120;-1.456;2023-07-28T08:55:16;22.00;99.90
16871;DHT22;8552;48.120;-1.456;2023-07-28T08:57:42;21.90;99.90
16871;DHT22;8552;48.120;-1.456;2023-07-28T09:00:11;21.90;99.90
16871;DHT22;8552;48.120;-1.456;2023-07-28T09:02:43;21.90;99.90
16871;DHT22;8552;48.120;-1.456;2023-07-28T09:05:22;22.00;99.90
16871;DHT22;8552;48.120;-1.456;2023-07-28T09:07:49;22.20;99.90
16871;DHT22;8552;48.120;-1.456;2023-07-28T09:10:15;22.40;99.90
16871;DHT22;8552;48.120;-1.456;2023-07-28T09:12:49;22.40;99.90
16871;DHT22;8552;48.120;-1.456;2023-07-28T09:15:16;22.40;99.90
16871;DHT22;8552;48.120;-1.456;2023-07-28T09:17:48;22.60;99.90
16871;DHT22;8552;48.120;-1.456;2023-07-28T09:20:16;22.70;99.90
16871;DHT22;8552;48.120;-1.456;2023-07-28T09:22:51;22.90;99.90
16871;DHT22;8552;48.120;-1.456;2023-07-28T09:25:21;22.80;99.90
16871;DHT22;8552;48.120;-1.456;2023-07-28T09:27:53;23.00;99.90
16871;DHT22;8552;48.120;-1.456;2023-07-28T09:30:23;23.00;99.90
16871;DHT22;8552;48.120;-1.456;2023-07-28T09:32:53;23.10;99.90
16871;DHT22;8552;48.120;-1.456;2023-07-28T09:35:26;23.20;99.90
16871;DHT22;8552;48.120;-1.456;2023-07-28T09:37:53;23.20;99.90
16871;DHT22;8552;48.120;-1.456;2023-07-28T09:40:23;23.10;99.90
16871;DHT22;8552;48.120;-1.456;2023-07-28T09:42:54;23.30;99.90
16871;DHT22;8552;48.120;-1.456;2023-07-28T09:45:22;23.40;99.90
16871;DHT22;8552;48.120;-1.456;2023-07-28T09:47:51;23.70;99.90
16871;DHT22;8552;48.120;-1.456;2023-07-28T09:50:23;23.90;99.90
16871;DHT22;8552;48.120;-1.456;2023-07-28T09:52:53;24.00;99.90
16871;DHT22;8552;48.120;-1.456;2023-07-28T09:55:20;23.70;99.90
16871;DHT22;8552;48.120;-1.456;2023-07-28T09:57:50;23.70;99.90
16871;DHT22;8552;48.120;-1.456;2023-07-28T10:00:17;23.70;99.90
16871;DHT22;8552;48.120;-1.456;2023-07-28T10:02:44;23.80;99.90
16871;DHT22;8552;48.120;-1.456;2023-07-28T10:05:10;23.70;99.90
16871;DHT22;8552;48.120;-1.456;2023-07-28T10:07:39;23.70;99.90
16871;DHT22;8552;48.120;-1.456;2023-07-28T10:10:06;23.70;99.90
16871;DHT22;8552;48.120;-1.456;2023-07-28T10:12:40;23.70;99.90
16871;DHT22;8552;48.120;-1.456;2023-07-28T10:15:13;23.70;99.90
16871;DHT22;8552;48.120;-1.456;2023-07-28T10:17:53;23.70;99.90
16871;DHT22;8552;48.120;-1.456;2023-07-28T10:20:37;23.70;99.90
16871;DHT22;8552;48.120;-1.456;2023-07-28T10:23:07;23.50;99.90
16871;DHT22;8552;48.120;-1.456;2023-07-28T10:25:37;23.50;99.90
16871;DHT22;8552;48.120;-1.456;2023-07-28T10:28:05;23.70;99.90
16871;DHT22;8552;48.120;-1.456;2023-07-28T10:30:53;23.50;99.90
16871;DHT22;8552;48.120;-1.456;2023-07-28T10:35:55;23.20;99.90
16871;DHT22;8552;48.120;-1.456;2023-07-28T10:38:31;23.10;99.90
16871;DHT22;8552;48.120;-1.456;2023-07-28T10:41:18;23.30;99.90
16871;DHT22;8552;48.120;-1.456;2023-07-28T10:43:45;23.50;99.90
16871;DHT22;8552;48.120;-1.456;2023-07-28T10:46:20;23.50;99.90
16871;DHT22;8552;48.120;-1.456;2023-07-28T10:48:48;23.50;99.90
16871;DHT22;8552;48.120;-1.456;2023-07-28T10:51:24;23.40;99.90
16871;DHT22;8552;48.120;-1.456;2023-07-28T10:54:00;23.40;99.90
16871;DHT22;8552;48.120;-1.456;2023-07-28T10:56:29;23.40;99.90
16871;DHT22;8552;48.120;-1.456;2023-07-28T10:58:59;23.50;99.90
16871;DHT22;8552;48.120;-1.456;2023-07-28T11:01:31;23.70;99.90
16871;DHT22;8552;48.120;-1.456;2023-07-28T11:04:13;23.70;99.90
16871;DHT22;8552;48.120;-1.456;2023-07-28T11:06:44;23.60;99.90
16871;DHT22;8552;48.120;-1.456;2023-07-28T11:09:11;24.00;99.90
16871;DHT22;8552;48.120;-1.456;2023-07-28T11:11:38;24.20;99.90
16871;DHT22;8552;48.120;-1.456;2023-07-28T11:14:05;24.40;99.90
16871;DHT22;8552;48.120;-1.456;2023-07-28T11:16:34;24.50;99.90
16871;DHT22;8552;48.120;-1.456;2023-07-28T11:19:01;24.40;99.90
16871;DHT22;8552;48.120;-1.456;2023-07-28T11:21:28;24.60;99.90
16871;DHT22;8552;48.120;-1.456;2023-07-28T11:23:54;24.80;99.90
16871;DHT22;8552;48.120;-1.456;2023-07-28T11:26:20;25.00;99.90
16871;DHT22;8552;48.120;-1.456;2023-07-28T11:28:48;25.20;99.90
16871;DHT22;8552;48.120;-1.456;2023-07-28T11:31:14;25.20;99.90
16871;DHT22;8552;48.120;-1.456;2023-07-28T11:33:39;24.90;99.90
16871;DHT22;8552;48.120;-1.456;2023-07-28T11:36:06;24.80;99.90
16871;DHT22;8552;48.120;-1.456;2023-07-28T11:38:32;25.00;99.90
16871;DHT22;8552;48.120;-1.456;2023-07-28T11:40:59;25.40;99.90
16871;DHT22;8552;48.120;-1.456;2023-07-28T11:43:26;25.40;99.90
16871;DHT22;8552;48.120;-1.456;2023-07-28T11:45:52;25.20;99.90
16871;DHT22;8552;48.120;-1.456;2023-07-28T11:48:18;24.90;99.90
16871;DHT22;8552;48.120;-1.456;2023-07-28T11:50:44;24.90;99.90
16871;DHT22;8552;48.120;-1.456;2023-07-28T11:53:10;24.90;99.90
16871;DHT22;8552;48.120;-1.456;2023-07-28T11:55:37;25.00;99.90
16871;DHT22;8552;48.120;-1.456;2023-07-28T11:58:07;25.20;99.90
16871;DHT22;8552;48.120;-1.456;2023-07-28T12:00:40;25.10;99.90
16871;DHT22;8552;48.120;-1.456;2023-07-28T12:03:12;25.40;99.90
16871;DHT22;8552;48.120;-1.456;2023-07-28T12:05:58;25.60;99.90
16871;DHT22;8552;48.120;-1.456;2023-07-28T12:08:34;25.80;99.90
16871;DHT22;8552;48.120;-1.456;2023-07-28T12:11:00;26.20;99.90
16871;DHT22;8552;48.120;-1.456;2023-07-28T12:13:26;26.30;99.90
16871;DHT22;8552;48.120;-1.456;2023-07-28T12:15:52;25.90;99.90
16871;DHT22;8552;48.120;-1.456;2023-07-28T12:18:18;25.80;99.90
16871;DHT22;8552;48.120;-1.456;2023-07-28T12:20:46;26.10;99.90
16871;DHT22;8552;48.120;-1.456;2023-07-28T12:23:20;26.30;99.90
16871;DHT22;8552;48.120;-1.456;2023-07-28T12:25:47;26.20;99.90
16871;DHT22;8552;48.120;-1.456;2023-07-28T12:28:13;26.50;99.90
16871;DHT22;8552;48.120;-1.456;2023-07-28T12:30:39;26.60;99.90
16871;DHT22;8552;48.120;-1.456;2023-07-28T12:33:05;26.60;99.90
16871;DHT22;8552;48.120;-1.456;2023-07-28T12:35:32;26.70;99.90
16871;DHT22;8552;48.120;-1.456;2023-07-28T12:38:04;26.80;99.90
16871;DHT22;8552;48.120;-1.456;2023-07-28T12:40:31;26.60;99.90
16871;DHT22;8552;48.120;-1.456;2023-07-28T12:42:58;26.40;99.90
16871;DHT22;8552;48.120;-1.456;2023-07-28T12:45:24;26.60;99.90
16871;DHT22;8552;48.120;-1.456;2023-07-28T12:47:54;26.70;99.90
16871;DHT22;8552;48.120;-1.456;2023-07-28T12:50:21;26.50;99.90
16871;DHT22;8552;48.120;-1.456;2023-07-28T12:52:48;26.30;99.90
16871;DHT22;8552;48.120;-1.456;2023-07-28T12:55:14;26.20;99.90
16871;DHT22;8552;48.120;-1.456;2023-07-28T12:57:44;26.50;99.90
16871;DHT22;8552;48.120;-1.456;2023-07-28T13:00:11;26.50;99.90
16871;DHT22;8552;48.120;-1.456;2023-07-28T13:02:44;26.40;99.90
16871;DHT22;8552;48.120;-1.456;2023-07-28T13:05:11;26.40;99.90
16871;DHT22;8552;48.120;-1.456;2023-07-28T13:07:38;26.70;99.90
16871;DHT22;8552;48.120;-1.456;2023-07-28T13:10:07;26.90;99.90
16871;DHT22;8552;48.120;-1.456;2023-07-28T13:12:37;26.60;99.90
16871;DHT22;8552;48.120;-1.456;2023-07-28T13:15:03;26.60;99.90
16871;DHT22;8552;48.120;-1.456;2023-07-28T13:17:29;26.30;99.90
16871;DHT22;8552;48.120;-1.456;2023-07-28T13:19:55;26.30;99.90
16871;DHT22;8552;48.120;-1.456;2023-07-28T13:22:23;26.30;99.90
16871;DHT22;8552;48.120;-1.456;2023-07-28T13:24:48;26.10;99.90
16871;DHT22;8552;48.120;-1.456;2023-07-28T13:27:14;26.20;99.90
16871;DHT22;8552;48.120;-1.456;2023-07-28T13:29:40;26.20;99.90
16871;DHT22;8552;48.120;-1.456;2023-07-28T13:32:18;26.40;99.90
16871;DHT22;8552;48.120;-1.456;2023-07-28T13:34:44;26.60;99.50
16871;DHT22;8552;48.120;-1.456;2023-07-28T13:37:13;26.90;99.90
16871;DHT22;8552;48.120;-1.456;2023-07-28T13:39:39;27.20;99.90
16871;DHT22;8552;48.120;-1.456;2023-07-28T13:42:05;27.20;99.70
16871;DHT22;8552;48.120;-1.456;2023-07-28T13:44:33;27.30;97.00
16871;DHT22;8552;48.120;-1.456;2023-07-28T13:46:59;27.40;96.70
16871;DHT22;8552;48.120;-1.456;2023-07-28T13:49:26;27.30;97.90
16871;DHT22;8552;48.120;-1.456;2023-07-28T13:51:51;27.60;97.30
16871;DHT22;8552;48.120;-1.456;2023-07-28T13:54:17;27.80;97.40
16871;DHT22;8552;48.120;-1.456;2023-07-28T13:56:43;27.90;97.60
16871;DHT22;8552;48.120;-1.456;2023-07-28T13:59:09;28.10;97.40
16871;DHT22;8552;48.120;-1.456;2023-07-28T14:01:35;28.20;97.00
16871;DHT22;8552;48.120;-1.456;2023-07-28T14:04:00;28.30;94.00
16871;DHT22;8552;48.120;-1.456;2023-07-28T14:06:29;28.40;94.60
16871;DHT22;8552;48.120;-1.456;2023-07-28T14:08:56;28.50;93.60
16871;DHT22;8552;48.120;-1.456;2023-07-28T14:11:21;28.50;93.40
16871;DHT22;8552;48.120;-1.456;2023-07-28T14:13:47;28.50;94.60
16871;DHT22;8552;48.120;-1.456;2023-07-28T14:16:13;28.40;94.00
16871;DHT22;8552;48.120;-1.456;2023-07-28T14:18:38;28.50;92.50
16871;DHT22;8552;48.120;-1.456;2023-07-28T14:21:05;28.10;93.80
16871;DHT22;8552;48.120;-1.456;2023-07-28T14:23:31;28.20;92.40
16871;DHT22;8552;48.120;-1.456;2023-07-28T14:25:57;28.50;92.70
16871;DHT22;8552;48.120;-1.456;2023-07-28T14:28:23;28.40;92.50
16871;DHT22;8552;48.120;-1.456;2023-07-28T14:30:50;28.20;92.90
16871;DHT22;8552;48.120;-1.456;2023-07-28T14:33:17;28.40;93.10
16871;DHT22;8552;48.120;-1.456;2023-07-28T14:35:44;28.20;92.10
16871;DHT22;8552;48.120;-1.456;2023-07-28T14:38:11;28.10;92.60
16871;DHT22;8552;48.120;-1.456;2023-07-28T14:40:37;28.30;92.60
16871;DHT22;8552;48.120;-1.456;2023-07-28T14:43:06;28.60;92.90
16871;DHT22;8552;48.120;-1.456;2023-07-28T14:45:32;28.40;92.80
16871;DHT22;8552;48.120;-1.456;2023-07-28T14:47:58;28.60;93.50
16871;DHT22;8552;48.120;-1.456;2023-07-28T14:50:23;28.70;91.20
16871;DHT22;8552;48.120;-1.456;2023-07-28T14:52:49;28.90;90.50
16871;DHT22;8552;48.120;-1.456;2023-07-28T14:55:16;29.10;92.50
16871;DHT22;8552;48.120;-1.456;2023-07-28T14:57:42;29.10;90.60
16871;DHT22;8552;48.120;-1.456;2023-07-28T15:00:08;28.70;90.70
16871;DHT22;8552;48.120;-1.456;2023-07-28T15:02:34;28.60;90.90
16871;DHT22;8552;48.120;-1.456;2023-07-28T15:05:01;28.80;91.00
16871;DHT22;8552;48.120;-1.456;2023-07-28T15:07:30;28.60;90.30
16871;DHT22;8552;48.120;-1.456;2023-07-28T15:09:57;28.50;92.60
16871;DHT22;8552;48.120;-1.456;2023-07-28T15:12:23;28.10;91.10
16871;DHT22;8552;48.120;-1.456;2023-07-28T15:14:49;27.70;91.70
16871;DHT22;8552;48.120;-1.456;2023-07-28T15:17:16;27.50;92.70
16871;DHT22;8552;48.120;-1.456;2023-07-28T15:19:41;27.40;92.30
16871;DHT22;8552;48.120;-1.456;2023-07-28T15:22:08;27.20;92.20
16871;DHT22;8552;48.120;-1.456;2023-07-28T15:24:34;27.10;93.70
16871;DHT22;8552;48.120;-1.456;2023-07-28T15:27:00;27.20;94.10
16871;DHT22;8552;48.120;-1.456;2023-07-28T15:29:25;27.30;94.00
16871;DHT22;8552;48.120;-1.456;2023-07-28T15:31:51;27.40;93.50
16871;DHT22;8552;48.120;-1.456;2023-07-28T15:34:19;27.60;93.30